Time;durP1;ratioP1;P1;durP2;ratioP2;P2;SDS_P1;SDS_P2;PMS_P1;PMS_P2;Temp;Humidity;BMP_temperature;BMP_pressure;BME280_temperature;BME280_humidity;BME280_pressure;Samples;Min_cycle;Max_cycle;Signal;HPM_P1;HPM_P2
2022/05/09 00:00:54;;;;;;;3.70;3.40;;;11.90;99.90;;;;;;5061296;28;20436;-65
2022/05/09 00:03:25;;;;;;;2.30;1.00;;;12.00;99.90;;;;;;5061499;28;20495;-65
2022/05/09 00:05:56;;;;;;;1.17;1.07;;;12.20;99.90;;;;;;5062245;28;20499;-65
2022/05/09 00:08:27;;;;;;;0.77;0.77;;;12.40;99.90;;;;;;5060291;28;20486;-65
2022/05/09 00:10:58;;;;;;;1.23;0.90;;;12.50;99.90;;;;;;5060331;28;20448;-65
2022/05/09 00:13:30;;;;;;;1.73;1.00;;;12.60;99.90;;;;;;5056468;28;20464;-66
2022/05/09 00:16:03;;;;;;;8.20;6.13;;;12.60;99.90;;;;;;5061217;28;21161;-66
2022/05/09 00:18:34;;;;;;;7.50;5.83;;;12.50;99.90;;;;;;5061102;28;20472;-65
2022/05/09 00:21:05;;;;;;;33.10;25.13;;;12.40;99.90;;;;;;5055738;28;20802;-66
2022/05/09 00:23:36;;;;;;;4.23;3.57;;;12.50;99.90;;;;;;5058744;28;20507;-65
2022/05/09 00:26:07;;;;;;;2.50;2.30;;;12.60;99.90;;;;;;5059512;28;20481;-65
2022/05/09 00:28:38;;;;;;;1.17;1.17;;;12.60;99.90;;;;;;5058139;28;20452;-66
2022/05/09 00:31:11;;;;;;;1.30;1.20;;;12.80;99.90;;;;;;5051840;28;20465;-66
2022/05/09 00:33:42;;;;;;;2.07;1.50;;;13.00;99.90;;;;;;5043517;28;20493;-66
2022/05/09 00:36:17;;;;;;;1.60;1.50;;;13.10;99.90;;;;;;5046774;28;20453;-66
2022/05/09 00:38:48;;;;;;;1.30;1.20;;;12.90;99.90;;;;;;5059715;28;20451;-64
2022/05/09 00:41:34;;;;;;;1.50;1.40;;;12.90;99.90;;;;;;5060331;28;20445;-65
2022/05/09 00:44:09;;;;;;;2.30;1.10;;;13.00;99.90;;;;;;5058723;28;20523;-65
2022/05/09 00:46:43;;;;;;;2.97;2.77;;;12.90;99.90;;;;;;5058927;28;20492;-65
2022/05/09 00:49:20;;;;;;;4.47;4.17;;;12.90;99.90;;;;;;5056913;28;20456;-65
2022/05/09 00:51:55;;;;;;;2.20;1.20;;;12.80;99.90;;;;;;5060036;28;20448;-65
2022/05/09 00:54:28;;;;;;;2.67;2.57;;;12.60;99.90;;;;;;5059272;28;20471;-65
2022/05/09 00:57:11;;;;;;;1.13;1.03;;;12.60;99.90;;;;;;5064756;28;20449;-64
2022/05/09 00:59:43;;;;;;;1.40;1.30;;;12.50;99.90;;;;;;5067543;28;20467;-64
2022/05/09 01:02:17;;;;;;;2.43;1.73;;;12.20;99.90;;;;;;5064009;28;20474;-64
2022/05/09 01:04:53;;;;;;;2.20;1.13;;;11.80;99.90;;;;;;5064498;28;20557;-64
2022/05/09 01:07:25;;;;;;;2.20;0.97;;;11.40;99.90;;;;;;5063857;28;20464;-64
2022/05/09 01:09:57;;;;;;;1.63;1.20;;;10.90;99.90;;;;;;5064058;28;20465;-65
2022/05/09 01:12:33;;;;;;;1.10;1.00;;;10.60;99.90;;;;;;5063430;28;20927;-67
2022/05/09 01:15:07;;;;;;;1.60;1.50;;;10.20;99.90;;;;;;5063319;28;20939;-65
2022/05/09 01:17:39;;;;;;;1.70;1.60;;;9.80;99.90;;;;;;5061308;28;20984;-64
2022/05/09 01:20:13;;;;;;;1.80;1.47;;;9.60;99.90;;;;;;5064590;28;20464;-65
2022/05/09 01:22:45;;;;;;;2.00;1.40;;;9.60;99.90;;;;;;5061227;28;20947;-65
2022/05/09 01:25:18;;;;;;;1.60;1.50;;;9.50;99.90;;;;;;5062590;28;20464;-66
2022/05/09 01:27:49;;;;;;;1.60;1.50;;;9.20;99.90;;;;;;5062531;28;20456;-67
2022/05/09 01:30:24;;;;;;;1.80;1.70;;;9.10;99.90;;;;;;5063843;28;20783;-67
2022/05/09 01:32:59;;;;;;;2.43;1.50;;;8.90;99.90;;;;;;5063852;28;20227;-67
2022/05/09 01:35:38;;;;;;;1.80;1.70;;;8.80;99.90;;;;;;5063161;28;20468;-67
2022/05/09 01:38:17;;;;;;;2.22;1.70;;;8.80;99.90;;;;;;5056886;28;20198;-67
2022/05/09 01:40:48;;;;;;;1.80;1.70;;;8.80;99.90;;;;;;5064450;28;20208;-67
2022/05/09 01:43:33;;;;;;;3.83;3.43;;;8.90;99.90;;;;;;5063028;28;20226;-69
2022/05/09 01:46:05;;;;;;;1.70;1.60;;;8.80;99.90;;;;;;5061148;28;20935;-67
2022/05/09 01:51:25;;;;;;;1.98;1.63;;;8.80;99.90;;;;;;5062728;28;20210;-64
2022/05/09 01:53:58;;;;;;;1.60;1.50;;;8.80;99.90;;;;;;5064431;28;20204;-64
2022/05/09 01:56:30;;;;;;;2.00;1.70;;;8.90;99.90;;;;;;5063264;28;20456;-64
2022/05/09 01:59:01;;;;;;;2.47;2.38;;;8.80;99.90;;;;;;5062521;28;20461;-66
2022/05/09 02:01:37;;;;;;;2.13;1.90;;;8.90;99.90;;;;;;5061900;28;20205;-63
2022/05/09 02:04:09;;;;;;;2.75;2.55;;;9.00;99.90;;;;;;5050525;28;20280;-63
2022/05/09 02:06:40;;;;;;;2.13;1.92;;;8.90;99.90;;;;;;5062367;28;20202;-63
2022/05/09 02:09:12;;;;;;;2.40;2.30;;;9.00;99.90;;;;;;5062485;28;20197;-63
2022/05/09 02:11:43;;;;;;;3.58;3.30;;;8.90;99.90;;;;;;5060185;28;20259;-63
2022/05/09 02:14:17;;;;;;;8.02;3.65;;;9.00;99.90;;;;;;5061000;28;20214;-64
2022/05/09 02:16:48;;;;;;;4.63;4.23;;;9.00;99.90;;;;;;5062266;28;20234;-63
2022/05/09 02:19:19;;;;;;;6.00;5.47;;;8.80;99.90;;;;;;5063266;28;20572;-62
2022/05/09 02:21:50;;;;;;;4.95;4.57;;;8.80;99.90;;;;;;5063256;28;20202;-62
2022/05/09 02:24:22;;;;;;;6.43;5.10;;;8.80;99.90;;;;;;5061496;28;20225;-62
2022/05/09 02:26:53;;;;;;;4.30;3.90;;;8.80;99.90;;;;;;5065240;28;20458;-62
2022/05/09 02:29:24;;;;;;;3.63;3.33;;;8.80;99.90;;;;;;5062041;28;20460;-63
2022/05/09 02:31:57;;;;;;;4.27;3.87;;;8.70;99.90;;;;;;5062478;28;20202;-63
2022/05/09 02:34:28;;;;;;;3.60;3.30;;;8.60;99.90;;;;;;5062430;28;20515;-63
2022/05/09 02:36:59;;;;;;;3.63;2.80;;;8.60;99.90;;;;;;5062750;28;20206;-62
2022/05/09 02:39:31;;;;;;;4.95;3.00;;;8.70;99.90;;;;;;5060865;28;20210;-65
2022/05/09 02:42:02;;;;;;;2.83;2.60;;;8.70;99.90;;;;;;5062271;28;20220;-64
2022/05/09 02:44:38;;;;;;;2.30;2.10;;;8.80;99.90;;;;;;5061147;28;20526;-65
2022/05/09 02:47:09;;;;;;;2.90;2.70;;;8.80;99.90;;;;;;5063495;28;20200;-63
2022/05/09 02:49:41;;;;;;;2.20;2.00;;;8.80;99.90;;;;;;5058197;28;20235;-63
2022/05/09 02:52:12;;;;;;;2.30;1.60;;;8.80;99.90;;;;;;5060447;28;20205;-63
2022/05/09 02:54:48;;;;;;;1.65;1.40;;;8.80;99.90;;;;;;5062088;28;20209;-63
2022/05/09 02:57:19;;;;;;;2.05;1.90;;;8.80;99.90;;;;;;5060553;28;20339;-64
2022/05/09 02:59:49;;;;;;;1.52;1.42;;;8.90;99.90;;;;;;5064445;28;20209;-64
2022/05/09 03:02:20;;;;;;;1.73;1.63;;;8.90;99.90;;;;;;5064737;28;20209;-65
2022/05/09 03:04:50;;;;;;;1.80;1.70;;;8.90;99.90;;;;;;5061423;28;20244;-64
2022/05/09 03:07:21;;;;;;;1.80;1.50;;;8.90;99.90;;;;;;5062345;28;20202;-64
2022/05/09 03:09:54;;;;;;;1.73;1.63;;;8.90;99.90;;;;;;5060863;28;20213;-64
2022/05/09 03:12:25;;;;;;;2.22;2.10;;;9.10;99.90;;;;;;5062991;28;20224;-64
2022/05/09 03:14:55;;;;;;;1.80;1.60;;;9.00;99.90;;;;;;5062644;28;20263;-65
2022/05/09 03:17:26;;;;;;;2.35;1.85;;;8.90;99.90;;;;;;5060893;28;20259;-64
2022/05/09 03:19:57;;;;;;;2.40;2.20;;;8.80;99.90;;;;;;5061099;28;20210;-64
2022/05/09 03:22:29;;;;;;;2.15;1.90;;;8.80;99.90;;;;;;5061864;28;20237;-64
2022/05/09 03:25:02;;;;;;;2.22;2.03;;;8.80;99.90;;;;;;5060672;28;20245;-64
2022/05/09 03:27:33;;;;;;;2.55;1.90;;;8.60;99.90;;;;;;5061371;28;20216;-63
2022/05/09 03:30:03;;;;;;;1.98;1.80;;;8.60;99.90;;;;;;5060992;28;20209;-63
2022/05/09 03:32:35;;;;;;;2.00;1.90;;;8.60;99.90;;;;;;5060403;28;20201;-62
2022/05/09 03:35:07;;;;;;;3.45;1.80;;;8.60;99.90;;;;;;5060866;28;20198;-63
2022/05/09 03:37:39;;;;;;;2.38;1.83;;;8.40;99.90;;;;;;5051450;28;20288;-63
2022/05/09 03:40:13;;;;;;;2.30;2.10;;;8.30;99.90;;;;;;5059201;28;20213;-63
2022/05/09 03:42:44;;;;;;;2.78;2.22;;;8.30;99.90;;;;;;5061622;28;20269;-63
2022/05/09 03:45:16;;;;;;;2.90;2.70;;;8.30;99.90;;;;;;5059806;28;20256;-64
2022/05/09 03:47:46;;;;;;;3.45;2.50;;;8.30;99.90;;;;;;5061189;28;20201;-63
2022/05/09 03:50:17;;;;;;;4.60;2.78;;;8.20;99.90;;;;;;5070193;28;20315;-63
2022/05/09 03:52:48;;;;;;;2.75;2.53;;;8.30;99.90;;;;;;5062895;28;20198;-63
2022/05/09 03:55:21;;;;;;;3.20;2.95;;;8.30;99.90;;;;;;5059612;28;20261;-63
2022/05/09 03:57:53;;;;;;;3.20;3.00;;;8.50;99.90;;;;;;5063964;28;20292;-63
2022/05/09 04:00:26;;;;;;;3.20;2.90;;;8.50;99.90;;;;;;5059875;28;20636;-63
2022/05/09 04:02:57;;;;;;;3.70;3.40;;;8.50;99.90;;;;;;5062654;28;20198;-65
2022/05/09 04:05:30;;;;;;;3.75;3.40;;;8.40;99.90;;;;;;5059870;28;20301;-63
2022/05/09 04:08:02;;;;;;;5.00;4.05;;;8.30;99.90;;;;;;5057178;28;20274;-63
2022/05/09 04:10:36;;;;;;;4.18;3.80;;;8.30;99.90;;;;;;5058759;28;20201;-63
2022/05/09 04:13:07;;;;;;;3.83;3.53;;;8.10;99.90;;;;;;5063119;28;20206;-63
2022/05/09 04:18:25;;;;;;;4.10;3.70;;;8.00;99.90;;;;;;5046826;28;20344;-64
2022/05/09 04:20:55;;;;;;;4.40;4.00;;;8.00;99.90;;;;;;5059197;28;20209;-63
2022/05/09 04:23:26;;;;;;;4.80;4.30;;;8.10;99.90;;;;;;5058810;28;20206;-63
2022/05/09 04:25:59;;;;;;;4.38;3.97;;;8.20;99.90;;;;;;5059739;28;20226;-64
2022/05/09 04:28:30;;;;;;;4.10;3.75;;;8.10;99.90;;;;;;5062899;28;20573;-63
2022/05/09 04:31:01;;;;;;;4.10;3.70;;;8.00;99.90;;;;;;5065182;28;20214;-63
2022/05/09 04:33:33;;;;;;;4.50;4.10;;;8.10;99.90;;;;;;5064164;28;20729;-63
2022/05/09 04:36:05;;;;;;;6.88;4.55;;;8.10;99.90;;;;;;5065179;28;20205;-63
2022/05/09 04:38:39;;;;;;;5.20;4.13;;;8.00;99.90;;;;;;5063960;28;20217;-63
2022/05/09 04:41:13;;;;;;;6.95;4.40;;;8.00;99.90;;;;;;5066321;28;20198;-63
2022/05/09 04:43:44;;;;;;;5.15;4.65;;;7.80;99.90;;;;;;5063922;28;20616;-63
2022/05/09 04:46:15;;;;;;;5.18;4.47;;;7.70;99.90;;;;;;5062613;28;20222;-63
2022/05/09 04:48:46;;;;;;;7.53;4.97;;;7.60;99.90;;;;;;5061223;28;20225;-64
2022/05/09 04:51:18;;;;;;;5.45;4.55;;;7.40;99.90;;;;;;5063469;28;20630;-63
2022/05/09 04:53:49;;;;;;;5.03;4.50;;;7.30;99.90;;;;;;5048487;28;20202;-63
2022/05/09 04:56:22;;;;;;;4.97;4.55;;;7.30;99.90;;;;;;5064316;28;20672;-63
2022/05/09 04:58:53;;;;;;;6.30;4.10;;;7.20;99.90;;;;;;5064519;28;20213;-63
2022/05/09 05:01:24;;;;;;;4.82;4.43;;;7.20;99.90;;;;;;5061921;28;20202;-63
2022/05/09 05:03:55;;;;;;;6.07;5.40;;;7.10;99.90;;;;;;5063007;28;20205;-63
2022/05/09 05:06:26;;;;;;;4.72;4.30;;;7.00;99.90;;;;;;5064148;28;20233;-64
2022/05/09 05:08:56;;;;;;;5.65;4.60;;;7.00;99.90;;;;;;5062200;28;20210;-64
2022/05/09 05:11:29;;;;;;;4.75;4.38;;;7.00;99.90;;;;;;5063188;28;20206;-64
2022/05/09 05:14:00;;;;;;;7.22;4.72;;;7.00;99.90;;;;;;5048557;28;20202;-64
2022/05/09 05:19:14;;;;;;;5.43;5.03;;;6.90;99.90;;;;;;5058991;28;20203;-64
2022/05/09 05:21:45;;;;;;;5.50;5.00;;;6.80;99.90;;;;;;5062332;28;20214;-63
2022/05/09 05:24:21;;;;;;;6.80;5.57;;;6.90;99.90;;;;;;5055151;28;20213;-64
2022/05/09 05:26:54;;;;;;;5.50;5.00;;;6.80;99.90;;;;;;5062771;28;20324;-64
2022/05/09 05:29:25;;;;;;;5.72;5.22;;;6.80;99.90;;;;;;5062691;28;20205;-64
2022/05/09 05:31:56;;;;;;;9.38;5.40;;;6.70;99.90;;;;;;5063447;28;20206;-64
2022/05/09 05:34:26;;;;;;;6.47;5.80;;;6.60;99.90;;;;;;5063463;28;20210;-64
2022/05/09 05:36:57;;;;;;;5.63;5.07;;;6.70;99.90;;;;;;5063312;28;20225;-64
2022/05/09 05:39:28;;;;;;;6.13;5.53;;;6.70;99.90;;;;;;5061957;28;20205;-64
2022/05/09 05:42:01;;;;;;;5.85;5.30;;;6.60;99.90;;;;;;5062960;28;20209;-64
2022/05/09 05:44:32;;;;;;;5.43;4.93;;;6.60;99.90;;;;;;5061058;28;20320;-64
2022/05/09 05:47:08;;;;;;;5.97;5.35;;;6.60;99.90;;;;;;5059810;28;20709;-64
2022/05/09 05:49:39;;;;;;;5.00;4.60;;;6.70;99.90;;;;;;5063238;28;20224;-63
2022/05/09 05:52:11;;;;;;;5.45;4.90;;;6.70;99.90;;;;;;5063153;28;20221;-63
2022/05/09 05:54:43;;;;;;;6.03;4.72;;;6.60;99.90;;;;;;5062321;28;20210;-63
2022/05/09 05:57:22;;;;;;;4.60;4.20;;;6.60;99.90;;;;;;5063145;28;20221;-63
2022/05/09 05:59:54;;;;;;;5.00;4.50;;;6.70;99.90;;;;;;5063171;28;20215;-63
2022/05/09 06:02:25;;;;;;;4.90;4.40;;;6.60;99.90;;;;;;5063591;28;20214;-63
2022/05/09 06:04:56;;;;;;;4.68;4.28;;;6.70;99.90;;;;;;5062788;28;20252;-64
2022/05/09 06:07:28;;;;;;;4.05;3.65;;;6.70;99.90;;;;;;5061803;28;20234;-62
2022/05/09 06:09:58;;;;;;;4.78;4.32;;;6.80;99.90;;;;;;5061537;28;20216;-63
2022/05/09 06:12:31;;;;;;;4.13;3.67;;;6.80;99.90;;;;;;5061430;28;20202;-64
2022/05/09 06:17:50;;;;;;;4.55;4.15;;;7.00;99.90;;;;;;5061506;28;20206;-65
2022/05/09 06:20:21;;;;;;;6.10;4.68;;;7.00;99.90;;;;;;5057881;28;20273;-64
2022/05/09 06:22:54;;;;;;;3.90;3.60;;;7.10;99.90;;;;;;5061859;28;20221;-63
2022/05/09 06:25:25;;;;;;;4.47;3.42;;;7.10;99.90;;;;;;5061034;28;20220;-63
2022/05/09 06:27:58;;;;;;;3.92;3.55;;;7.00;99.90;;;;;;5056165;28;20282;-63
2022/05/09 06:30:30;;;;;;;3.92;3.63;;;6.80;99.90;;;;;;5061002;28;20225;-63
2022/05/09 06:33:01;;;;;;;3.85;3.40;;;6.90;99.90;;;;;;5061191;28;20608;-63
2022/05/09 06:35:31;;;;;;;4.28;3.88;;;6.90;99.90;;;;;;5062363;28;20200;-64
2022/05/09 06:38:05;;;;;;;6.10;4.68;;;7.00;99.90;;;;;;5062148;28;20217;-65
2022/05/09 06:40:37;;;;;;;3.63;3.33;;;6.90;99.90;;;;;;5061792;28;20208;-64
2022/05/09 06:43:09;;;;;;;4.40;4.00;;;6.90;99.90;;;;;;5060996;28;20558;-65
2022/05/09 06:45:40;;;;;;;4.18;3.65;;;6.90;99.90;;;;;;5059894;28;20217;-65
2022/05/09 06:48:11;;;;;;;3.85;3.47;;;6.90;99.90;;;;;;5058177;28;20209;-65
2022/05/09 06:50:42;;;;;;;3.75;3.45;;;6.90;99.90;;;;;;5060810;28;20229;-65
2022/05/09 06:53:14;;;;;;;3.53;3.22;;;6.90;99.90;;;;;;5061801;28;20201;-65
2022/05/09 06:55:49;;;;;;;4.05;3.65;;;6.90;99.90;;;;;;5060927;28;20205;-62
2022/05/09 06:58:24;;;;;;;3.80;3.50;;;6.90;99.90;;;;;;5056446;28;20229;-64
2022/05/09 07:00:56;;;;;;;3.58;3.28;;;6.90;99.90;;;;;;5059645;28;20197;-63
2022/05/09 07:03:30;;;;;;;4.13;3.50;;;7.00;99.90;;;;;;5060287;28;20213;-63
2022/05/09 07:06:00;;;;;;;4.18;3.15;;;7.00;99.90;;;;;;5061298;28;20218;-63
2022/05/09 07:08:32;;;;;;;3.65;3.35;;;7.00;99.90;;;;;;5060499;28;20210;-63
2022/05/09 07:11:05;;;;;;;4.80;3.17;;;7.00;99.90;;;;;;5054604;28;20198;-63
2022/05/09 07:13:44;;;;;;;3.97;3.58;;;7.00;99.90;;;;;;5061282;28;20225;-65
2022/05/09 07:16:15;;;;;;;3.42;3.13;;;7.00;99.90;;;;;;5061187;28;20688;-65
2022/05/09 07:18:46;;;;;;;3.35;3.05;;;7.00;99.90;;;;;;5059884;28;20284;-65
2022/05/09 07:21:17;;;;;;;3.40;2.92;;;7.00;99.90;;;;;;5055874;28;20198;-65
2022/05/09 07:23:48;;;;;;;3.00;2.75;;;7.00;99.90;;;;;;5060510;28;20217;-64
2022/05/09 07:26:19;;;;;;;2.42;2.22;;;7.10;99.90;;;;;;5061171;28;20229;-64
2022/05/09 07:28:51;;;;;;;3.22;2.92;;;7.10;99.90;;;;;;5077044;28;20598;-64
2022/05/09 07:31:22;;;;;;;3.90;2.60;;;7.10;99.90;;;;;;5061095;28;20209;-64
2022/05/09 07:33:53;;;;;;;2.65;2.45;;;7.00;99.90;;;;;;5058183;28;20634;-63
2022/05/09 07:36:24;;;;;;;2.10;1.92;;;7.00;99.90;;;;;;5060417;28;20198;-63
2022/05/09 07:38:55;;;;;;;3.67;2.40;;;7.00;99.90;;;;;;5061405;28;20215;-63
2022/05/09 07:41:27;;;;;;;2.30;2.10;;;7.00;99.90;;;;;;5060424;28;20209;-63
2022/05/09 07:43:59;;;;;;;2.13;1.90;;;6.90;99.90;;;;;;5061113;28;20687;-64
2022/05/09 07:46:30;;;;;;;2.60;2.38;;;6.70;99.90;;;;;;5060167;28;20572;-64
2022/05/09 07:49:16;;;;;;;2.45;1.90;;;6.70;99.90;;;;;;5056689;28;20206;-64
2022/05/09 07:51:47;;;;;;;2.55;2.15;;;6.70;99.90;;;;;;5059721;28;20210;-65
2022/05/09 07:54:18;;;;;;;2.00;1.90;;;6.70;99.90;;;;;;5060431;28;20194;-64
2022/05/09 07:56:50;;;;;;;5.60;2.20;;;6.70;99.90;;;;;;5061353;28;20202;-63
2022/05/09 07:59:22;;;;;;;1.95;1.75;;;6.70;99.90;;;;;;5060057;28;20289;-64
2022/05/09 08:01:53;;;;;;;1.90;1.70;;;6.60;99.90;;;;;;5059927;28;20209;-64
2022/05/09 08:04:24;;;;;;;2.30;2.10;;;6.60;99.90;;;;;;5063734;28;20300;-64
2022/05/09 08:06:55;;;;;;;2.83;2.00;;;6.50;99.90;;;;;;5061197;28;20225;-64
2022/05/09 08:09:26;;;;;;;3.08;2.55;;;6.40;99.90;;;;;;5064222;28;20317;-64
2022/05/09 08:11:58;;;;;;;3.05;2.55;;;6.30;99.90;;;;;;5063975;28;20202;-63
2022/05/09 08:14:30;;;;;;;3.17;2.60;;;6.30;99.90;;;;;;5063629;28;20206;-62
2022/05/09 08:17:02;;;;;;;2.55;2.35;;;6.30;99.90;;;;;;5064811;28;20240;-65
2022/05/09 08:19:34;;;;;;;2.97;2.30;;;6.30;99.90;;;;;;5057694;28;20206;-63
2022/05/09 08:22:07;;;;;;;2.58;2.38;;;6.30;99.90;;;;;;5059329;28;20201;-63
2022/05/09 08:24:45;;;;;;;4.40;2.95;;;6.30;99.90;;;;;;5063623;28;20202;-63
2022/05/09 08:27:16;;;;;;;3.47;2.63;;;6.20;99.90;;;;;;5065118;28;20221;-63
2022/05/09 08:29:48;;;;;;;3.15;2.85;;;6.20;99.90;;;;;;5062325;28;20206;-63
2022/05/09 08:32:19;;;;;;;4.28;3.08;;;6.10;99.90;;;;;;5064554;28;20210;-63
2022/05/09 08:34:51;;;;;;;4.20;3.30;;;6.10;99.90;;;;;;5064574;28;20209;-63
2022/05/09 08:37:22;;;;;;;2.85;2.65;;;6.00;99.90;;;;;;5063042;28;20220;-64
2022/05/09 08:39:53;;;;;;;3.60;2.63;;;6.00;99.90;;;;;;5063804;28;20205;-64
2022/05/09 08:42:28;;;;;;;2.88;2.60;;;6.00;99.90;;;;;;5064401;28;20202;-64
2022/05/09 08:45:15;;;;;;;3.05;2.55;;;6.00;99.90;;;;;;5064182;28;20641;-65
2022/05/09 08:48:11;;;;;;;3.13;2.88;;;6.00;99.90;;;;;;5063014;28;20244;-63
2022/05/09 08:51:08;;;;;;;4.00;3.03;;;6.00;99.90;;;;;;5063233;28;20202;-63
2022/05/09 08:53:42;;;;;;;3.15;2.95;;;5.90;99.90;;;;;;5063269;28;20209;-63
2022/05/09 08:56:17;;;;;;;3.08;2.42;;;5.90;99.90;;;;;;5064533;28;20202;-64
2022/05/09 08:58:53;;;;;;;2.30;2.10;;;5.90;99.90;;;;;;5063813;28;20210;-64
2022/05/09 09:01:35;;;;;;;3.75;2.72;;;5.90;99.90;;;;;;5064162;28;20659;-64
2022/05/09 09:04:08;;;;;;;2.33;2.10;;;5.70;99.90;;;;;;5064594;28;20260;-64
2022/05/09 09:06:53;;;;;;;2.47;2.08;;;5.70;99.90;;;;;;5063741;28;20206;-64
2022/05/09 09:09:38;;;;;;;5.53;2.20;;;5.70;99.90;;;;;;5062765;28;20941;-64
2022/05/09 09:12:18;;;;;;;3.00;2.00;;;5.70;99.90;;;;;;5062910;28;20216;-64
2022/05/09 09:14:59;;;;;;;2.55;2.30;;;5.60;99.90;;;;;;5061369;28;20214;-64
2022/05/09 09:17:49;;;;;;;2.20;2.00;;;5.60;99.90;;;;;;5063939;28;20252;-64
2022/05/09 09:20:25;;;;;;;2.38;2.17;;;5.50;99.90;;;;;;5059457;28;20316;-65
2022/05/09 09:23:14;;;;;;;4.35;2.40;;;5.50;99.90;;;;;;5063272;28;20216;-63
2022/05/09 09:25:54;;;;;;;2.90;2.70;;;5.50;99.90;;;;;;5062487;28;20198;-62
2022/05/09 09:28:30;;;;;;;2.35;2.05;;;5.50;99.90;;;;;;5062441;28;20225;-63
2022/05/09 09:31:01;;;;;;;2.78;2.58;;;5.60;99.90;;;;;;5061856;28;20214;-64
2022/05/09 09:33:37;;;;;;;2.45;2.22;;;5.50;99.90;;;;;;5062681;28;20261;-63
2022/05/09 09:36:13;;;;;;;2.35;2.00;;;5.50;99.90;;;;;;5062644;28;20300;-64
2022/05/09 09:38:53;;;;;;;2.15;1.95;;;5.50;99.90;;;;;;5063092;28;20202;-65
2022/05/09 09:41:27;;;;;;;2.17;1.70;;;5.50;99.90;;;;;;5062745;28;22781;-65
2022/05/09 09:44:06;;;;;;;2.17;2.03;;;5.50;99.90;;;;;;5062333;28;20195;-65
2022/05/09 09:46:59;;;;;;;2.08;1.95;;;5.50;99.90;;;;;;5063536;28;20201;-64
2022/05/09 09:49:32;;;;;;;4.00;2.20;;;5.50;99.90;;;;;;5061152;28;20260;-64
2022/05/09 09:52:04;;;;;;;2.58;2.00;;;5.50;99.90;;;;;;5061983;28;20208;-64
2022/05/09 09:54:36;;;;;;;3.00;2.20;;;5.50;99.90;;;;;;5062777;28;20206;-64
2022/05/09 09:57:21;;;;;;;2.50;2.30;;;5.50;99.90;;;;;;5061578;28;20400;-64
2022/05/09 09:59:53;;;;;;;2.60;1.95;;;5.50;99.90;;;;;;5061161;28;20236;-64
2022/05/09 10:02:27;;;;;;;3.50;2.30;;;5.50;99.90;;;;;;5061962;28;20194;-64
2022/05/09 10:05:11;;;;;;;2.90;2.33;;;5.50;99.90;;;;;;5060500;28;20232;-64
2022/05/09 10:07:44;;;;;;;1.85;1.45;;;5.60;99.90;;;;;;5062252;28;20260;-63
2022/05/09 10:10:16;;;;;;;2.45;2.25;;;5.60;99.90;;;;;;5059808;28;20221;-63
2022/05/09 10:12:49;;;;;;;2.22;2.13;;;5.60;99.90;;;;;;5062579;28;20269;-64
2022/05/09 10:15:34;;;;;;;2.00;1.80;;;5.60;99.90;;;;;;5061518;28;20213;-64
2022/05/09 10:18:23;;;;;;;3.55;2.15;;;5.70;99.90;;;;;;5061417;28;20229;-64
2022/05/09 10:26:57;;;;;;;1.77;1.67;;;5.90;99.90;;;;;;5061781;28;20660;-64
2022/05/09 10:29:31;;;;;;;3.05;1.80;;;5.90;99.90;;;;;;5055998;28;20224;-63
2022/05/09 10:32:06;;;;;;;1.95;1.85;;;6.00;99.90;;;;;;5062056;28;20209;-64
2022/05/09 10:34:44;;;;;;;1.77;1.55;;;6.00;99.90;;;;;;5058816;28;20214;-64
2022/05/09 10:37:23;;;;;;;2.38;2.05;;;6.00;99.90;;;;;;5061852;28;20609;-63
2022/05/09 10:40:01;;;;;;;1.88;1.77;;;6.00;99.90;;;;;;5060326;28;20574;-63
2022/05/09 10:42:37;;;;;;;1.90;1.80;;;5.90;99.90;;;;;;5061815;28;20217;-63
2022/05/09 10:45:14;;;;;;;2.25;1.88;;;5.90;99.90;;;;;;5060846;28;20194;-64
2022/05/09 10:47:49;;;;;;;1.73;1.63;;;5.90;99.90;;;;;;5059983;28;20213;-63
2022/05/09 10:50:25;;;;;;;2.58;2.35;;;5.90;99.90;;;;;;5060668;28;20206;-63
2022/05/09 10:53:06;;;;;;;2.40;1.98;;;5.80;99.90;;;;;;5061585;28;20221;-63
2022/05/09 10:55:41;;;;;;;1.88;1.70;;;5.80;99.90;;;;;;5059425;28;20216;-63
2022/05/09 10:58:22;;;;;;;2.10;1.50;;;5.70;99.90;;;;;;5056930;28;20220;-63
2022/05/09 11:00:59;;;;;;;4.53;2.00;;;5.70;99.90;;;;;;5052778;28;20663;-63
2022/05/09 11:03:36;;;;;;;2.15;1.73;;;5.60;99.90;;;;;;5060100;28;20226;-63
2022/05/09 11:06:26;;;;;;;1.70;1.60;;;5.50;99.90;;;;;;5059571;28;20209;-63
2022/05/09 11:09:14;;;;;;;1.65;1.55;;;5.50;99.90;;;;;;5050071;28;20232;-63
2022/05/09 11:11:57;;;;;;;2.17;2.08;;;5.40;99.90;;;;;;5060470;28;20228;-63
2022/05/09 11:14:38;;;;;;;2.03;1.90;;;5.40;99.90;;;;;;5053661;28;20201;-63
2022/05/09 11:17:25;;;;;;;2.05;1.95;;;5.30;99.90;;;;;;5060094;28;20567;-63
2022/05/09 11:20:08;;;;;;;2.20;2.00;;;5.30;99.90;;;;;;5058888;28;20201;-63
2022/05/09 11:22:44;;;;;;;2.35;2.15;;;5.30;99.90;;;;;;5060577;28;20292;-63
2022/05/09 11:25:33;;;;;;;2.67;1.80;;;5.20;99.90;;;;;;5059515;28;20576;-62
2022/05/09 11:28:20;;;;;;;2.38;2.17;;;5.20;99.90;;;;;;5059355;28;20216;-63
2022/05/09 11:30:58;;;;;;;2.80;2.20;;;5.20;99.90;;;;;;5060699;28;20845;-63
2022/05/09 11:33:41;;;;;;;2.78;2.20;;;5.10;99.90;;;;;;5060966;28;20586;-63
2022/05/09 11:36:27;;;;;;;2.47;1.77;;;5.10;99.90;;;;;;5061713;28;20209;-63
2022/05/09 11:39:10;;;;;;;4.75;2.30;;;5.20;99.90;;;;;;5059704;28;20232;-64
2022/05/09 11:41:49;;;;;;;2.65;2.45;;;5.20;99.90;;;;;;5060406;28;20220;-64
2022/05/09 11:44:23;;;;;;;2.20;2.03;;;5.20;99.90;;;;;;5060775;28;20690;-64
2022/05/09 11:47:16;;;;;;;2.80;2.30;;;5.30;99.90;;;;;;5059635;28;20546;-64
2022/05/09 11:50:03;;;;;;;2.40;2.20;;;5.30;99.90;;;;;;5061483;28;20225;-64
2022/05/09 11:52:39;;;;;;;3.15;2.83;;;5.30;99.90;;;;;;5060154;28;20213;-64
2022/05/09 11:55:15;;;;;;;4.30;2.95;;;5.30;99.90;;;;;;5056025;28;20200;-63
2022/05/09 11:57:53;;;;;;;3.60;2.85;;;5.30;99.90;;;;;;5051428;28;20193;-63
2022/05/09 12:00:49;;;;;;;3.72;2.53;;;5.30;99.90;;;;;;5060068;28;20220;-64
2022/05/09 12:04:03;;;;;;;2.72;2.53;;;5.20;99.90;;;;;;5058667;28;20383;-65
2022/05/09 12:06:39;;;;;;;2.67;2.50;;;5.20;99.90;;;;;;5060456;28;20221;-64
2022/05/09 12:09:11;;;;;;;3.40;2.60;;;5.20;99.90;;;;;;5060807;28;20225;-63
2022/05/09 12:11:53;;;;;;;2.45;2.25;;;5.20;99.90;;;;;;5061100;28;20205;-63
2022/05/09 12:14:52;;;;;;;3.03;2.40;;;5.30;99.90;;;;;;5045813;28;20206;-64
2022/05/09 12:17:35;;;;;;;4.22;2.50;;;5.30;99.90;;;;;;5061816;28;20230;-64
2022/05/09 12:20:15;;;;;;;2.55;2.00;;;5.30;99.90;;;;;;5052352;28;20232;-64
2022/05/09 12:22:49;;;;;;;2.40;2.20;;;5.30;99.90;;;;;;5060301;28;20224;-64
2022/05/09 12:25:59;;;;;;;2.25;2.05;;;5.40;99.90;;;;;;5058729;28;20199;-63
2022/05/09 12:28:31;;;;;;;3.00;2.70;;;5.40;99.90;;;;;;5059016;28;20206;-63
2022/05/09 12:31:06;;;;;;;2.92;2.05;;;5.50;99.90;;;;;;5060140;28;20550;-62
2022/05/09 12:33:50;;;;;;;2.97;2.67;;;5.50;99.90;;;;;;5058448;28;20212;-64
2022/05/09 12:36:23;;;;;;;3.35;3.03;;;5.60;99.90;;;;;;5060457;28;20276;-63
2022/05/09 12:38:56;;;;;;;3.42;2.92;;;5.60;99.90;;;;;;5059697;28;20231;-64
2022/05/09 12:41:30;;;;;;;3.30;3.00;;;5.70;99.90;;;;;;5059287;28;20217;-62
2022/05/09 12:44:07;;;;;;;3.22;2.92;;;5.70;99.90;;;;;;5059618;28;20206;-64
2022/05/09 12:46:45;;;;;;;2.60;2.40;;;5.70;99.90;;;;;;5046765;28;20638;-63
2022/05/09 12:49:19;;;;;;;2.50;2.30;;;5.70;99.90;;;;;;5054426;28;20225;-65
2022/05/09 12:51:54;;;;;;;2.42;2.22;;;5.70;99.90;;;;;;5062507;28;20197;-65
2022/05/09 12:54:27;;;;;;;4.18;2.50;;;5.70;99.90;;;;;;5063140;28;20297;-63
2022/05/09 12:57:00;;;;;;;2.90;2.60;;;5.80;99.90;;;;;;5063576;28;20216;-63
2022/05/09 12:59:45;;;;;;;2.90;2.60;;;5.80;99.90;;;;;;5063774;28;20214;-65
2022/05/09 13:02:25;;;;;;;2.67;2.42;;;5.80;99.90;;;;;;5060190;28;20205;-65
2022/05/09 13:05:16;;;;;;;2.65;2.45;;;5.80;99.90;;;;;;5052655;28;20229;-65
2022/05/09 13:07:57;;;;;;;2.58;2.40;;;5.80;99.90;;;;;;5057535;28;20278;-65
2022/05/09 13:10:29;;;;;;;4.70;3.38;;;5.90;99.90;;;;;;5059707;28;20572;-64
2022/05/09 13:13:03;;;;;;;2.40;2.20;;;5.90;99.90;;;;;;5063891;28;20209;-64
2022/05/09 13:15:35;;;;;;;2.70;2.50;;;5.80;99.90;;;;;;5064137;28;20399;-64
2022/05/09 13:18:12;;;;;;;3.65;2.70;;;5.80;99.90;;;;;;5064098;28;20206;-64
2022/05/09 13:20:52;;;;;;;2.63;2.40;;;5.80;99.90;;;;;;5047962;28;20243;-64
2022/05/09 13:23:32;;;;;;;5.05;2.80;;;5.90;99.90;;;;;;5063200;28;20194;-64
2022/05/09 13:26:06;;;;;;;3.30;3.00;;;5.90;99.90;;;;;;5069968;28;20212;-64
2022/05/09 13:28:46;;;;;;;2.83;2.63;;;5.90;99.90;;;;;;5063854;28;20206;-64
2022/05/09 13:31:28;;;;;;;3.20;2.90;;;5.90;99.90;;;;;;5064138;28;20391;-65
2022/05/09 13:34:02;;;;;;;2.92;2.67;;;5.80;99.90;;;;;;5062375;28;20232;-65
2022/05/09 13:36:39;;;;;;;3.42;2.85;;;5.80;99.90;;;;;;5064259;28;20219;-64
2022/05/09 13:39:22;;;;;;;2.55;2.35;;;5.70;99.90;;;;;;5062929;28;20606;-64
2022/05/09 13:41:53;;;;;;;2.90;2.58;;;5.80;99.90;;;;;;5073515;28;20211;-65
2022/05/09 13:44:25;;;;;;;3.13;2.83;;;5.80;99.90;;;;;;5063940;28;20193;-65
2022/05/09 13:46:59;;;;;;;3.85;2.80;;;5.90;99.90;;;;;;5061625;28;20216;-64
2022/05/09 13:49:32;;;;;;;3.53;3.22;;;5.80;99.90;;;;;;5056499;28;20251;-66
2022/05/09 13:52:21;;;;;;;2.88;2.67;;;5.80;99.90;;;;;;5063477;28;20216;-64